Time;durP1;ratioP1;P1;durP2;ratioP2;P2;SDS_P1;SDS_P2;PMS_P1;PMS_P2;Temp;Humidity;BMP_temperature;BMP_pressure;BME280_temperature;BME280_humidity;BME280_pressure;Samples;Min_cycle;Max_cycle;Signal;HPM_P1;HPM_P2
2022/03/19 00:01:07;;;;;;;12.05;3.28;;;4.50;99.90;;;;;;4991373;28;20096;-83
2022/03/19 00:03:33;;;;;;;8.00;2.30;;;4.40;99.90;;;;;;4992439;28;20074;-83
2022/03/19 00:05:59;;;;;;;11.40;2.78;;;4.30;99.90;;;;;;5009898;28;20041;-83
2022/03/19 00:08:25;;;;;;;11.05;2.55;;;4.30;99.90;;;;;;4995975;28;20093;-83
2022/03/19 00:10:51;;;;;;;10.23;2.97;;;4.30;99.90;;;;;;4993598;28;20550;-82
2022/03/19 00:13:17;;;;;;;9.63;2.40;;;4.40;99.90;;;;;;4993713;28;20046;-83
2022/03/19 00:15:43;;;;;;;12.75;2.97;;;4.30;99.90;;;;;;4995258;28;20095;-83
2022/03/19 00:18:09;;;;;;;11.95;2.75;;;4.30;99.90;;;;;;5011256;28;20124;-83
2022/03/19 00:20:37;;;;;;;12.70;2.85;;;4.40;99.90;;;;;;5013178;28;20569;-83
2022/03/19 00:23:04;;;;;;;12.25;2.65;;;4.40;99.90;;;;;;4998584;28;20046;-83
2022/03/19 00:25:29;;;;;;;12.18;2.97;;;4.40;99.90;;;;;;4996865;28;20057;-83
2022/03/19 00:27:55;;;;;;;10.82;2.22;;;4.20;99.90;;;;;;4991392;28;20392;-83
2022/03/19 00:30:20;;;;;;;11.75;2.80;;;4.20;99.90;;;;;;4992683;28;20066;-84
2022/03/19 00:32:46;;;;;;;10.55;2.08;;;4.30;99.90;;;;;;4992574;28;20132;-83
2022/03/19 00:35:12;;;;;;;11.68;2.40;;;4.30;99.90;;;;;;4994426;28;20042;-83
2022/03/19 00:37:44;;;;;;;8.68;2.60;;;4.30;99.90;;;;;;5007284;28;20080;-83
2022/03/19 00:40:11;;;;;;;12.73;2.40;;;4.20;99.90;;;;;;5010559;28;20092;-83
2022/03/19 00:42:37;;;;;;;10.50;2.33;;;4.20;99.90;;;;;;5026980;28;20042;-83
2022/03/19 00:45:03;;;;;;;10.20;2.40;;;4.20;99.90;;;;;;5000493;28;20041;-83
2022/03/19 00:47:29;;;;;;;9.45;2.42;;;4.20;99.90;;;;;;4999244;28;20109;-83
2022/03/19 00:49:54;;;;;;;11.88;2.55;;;4.20;99.90;;;;;;5011274;28;20121;-83
2022/03/19 00:52:20;;;;;;;11.55;2.20;;;4.20;99.90;;;;;;5011241;28;20044;-83
2022/03/19 00:54:45;;;;;;;10.55;2.33;;;4.10;99.90;;;;;;5007707;28;20108;-83
2022/03/19 00:57:11;;;;;;;10.93;2.33;;;4.20;99.90;;;;;;4991518;28;20049;-83
2022/03/19 00:59:36;;;;;;;6.45;2.05;;;4.10;99.90;;;;;;4991583;28;20050;-83
2022/03/19 01:02:02;;;;;;;10.18;2.13;;;4.10;99.90;;;;;;4991958;28;20046;-83
2022/03/19 01:04:27;;;;;;;11.48;2.10;;;4.10;99.90;;;;;;4992806;28;20038;-84
2022/03/19 01:06:53;;;;;;;14.38;3.20;;;4.10;99.90;;;;;;4971865;28;20129;-83
2022/03/19 01:09:19;;;;;;;10.68;2.35;;;4.10;99.90;;;;;;4972012;28;20463;-83
2022/03/19 01:11:45;;;;;;;12.75;2.63;;;4.00;99.90;;;;;;4978539;28;20034;-83
2022/03/19 01:14:11;;;;;;;12.15;2.80;;;4.10;99.90;;;;;;4999711;28;20053;-83
2022/03/19 01:16:37;;;;;;;12.80;2.65;;;4.00;99.90;;;;;;4992506;28;20038;-83
2022/03/19 01:19:02;;;;;;;15.52;2.63;;;4.00;99.90;;;;;;5007165;28;20702;-83
2022/03/19 01:21:28;;;;;;;10.70;3.10;;;4.00;99.90;;;;;;4991819;28;20038;-83
2022/03/19 01:23:53;;;;;;;11.40;2.83;;;4.10;99.90;;;;;;4990825;28;20052;-83
2022/03/19 01:26:19;;;;;;;9.68;2.67;;;4.00;99.90;;;;;;5010382;28;20042;-84
2022/03/19 01:28:44;;;;;;;10.55;2.58;;;4.00;99.90;;;;;;4995199;28;20046;-83
2022/03/19 01:31:11;;;;;;;17.85;3.05;;;4.00;99.90;;;;;;5004450;28;20038;-83
2022/03/19 01:33:37;;;;;;;12.05;3.15;;;4.00;99.90;;;;;;5003966;28;20042;-83
2022/03/19 01:36:03;;;;;;;13.65;2.72;;;4.10;99.90;;;;;;5007902;28;20046;-84
2022/03/19 01:38:28;;;;;;;11.35;2.90;;;4.00;99.90;;;;;;5011175;28;20416;-83
2022/03/19 01:40:54;;;;;;;11.45;2.53;;;4.10;99.90;;;;;;5011839;28;20400;-83
2022/03/19 01:43:19;;;;;;;14.73;2.80;;;4.00;99.90;;;;;;5006444;28;20459;-83
2022/03/19 01:45:45;;;;;;;14.10;3.00;;;4.20;99.90;;;;;;4994425;28;20038;-83
2022/03/19 01:48:10;;;;;;;17.83;2.90;;;3.90;99.90;;;;;;4998401;28;20049;-83
2022/03/19 01:50:36;;;;;;;12.80;3.28;;;3.90;99.90;;;;;;4990857;28;20046;-83
2022/03/19 01:53:02;;;;;;;10.68;2.65;;;3.90;99.90;;;;;;4995630;28;20070;-84
2022/03/19 01:55:28;;;;;;;12.10;2.78;;;3.90;99.90;;;;;;5000556;28;20034;-84
2022/03/19 01:57:56;;;;;;;14.63;2.63;;;3.90;99.90;;;;;;5008606;28;20046;-84
2022/03/19 02:00:23;;;;;;;11.48;2.65;;;3.90;99.90;;;;;;4979370;28;20077;-83
2022/03/19 02:02:51;;;;;;;11.05;2.72;;;3.90;99.90;;;;;;4990844;28;20058;-84
2022/03/19 02:05:19;;;;;;;13.40;2.67;;;3.90;99.90;;;;;;4991866;28;20517;-83
2022/03/19 02:07:46;;;;;;;12.45;3.22;;;3.80;99.90;;;;;;5006956;28;20129;-83
2022/03/19 02:10:16;;;;;;;13.68;2.83;;;3.80;99.90;;;;;;4987578;28;20519;-83
2022/03/19 02:12:42;;;;;;;14.13;3.22;;;3.90;99.90;;;;;;4981407;28;20053;-83
2022/03/19 02:15:09;;;;;;;12.38;3.00;;;3.80;99.90;;;;;;4985529;28;20046;-83
2022/03/19 02:17:35;;;;;;;13.35;3.17;;;3.80;99.90;;;;;;4991923;28;20046;-83
2022/03/19 02:20:02;;;;;;;15.23;4.60;;;3.80;99.90;;;;;;4989977;28;20030;-84
2022/03/19 02:22:28;;;;;;;16.35;3.15;;;3.70;99.90;;;;;;4990654;28;20075;-84
2022/03/19 02:27:40;;;;;;;12.68;2.80;;;3.70;99.90;;;;;;4990263;28;20054;-84
2022/03/19 02:30:10;;;;;;;15.82;3.25;;;3.80;99.90;;;;;;4988868;28;20074;-83
2022/03/19 02:32:37;;;;;;;11.48;2.90;;;3.60;99.90;;;;;;4990914;28;20038;-84
2022/03/19 02:35:03;;;;;;;10.93;2.83;;;3.60;99.90;;;;;;4988938;28;20587;-83
2022/03/19 02:37:40;;;;;;;12.98;3.15;;;3.70;99.90;;;;;;5007784;28;20052;-84
2022/03/19 02:40:08;;;;;;;13.55;3.42;;;3.70;99.90;;;;;;5006750;28;20085;-82
2022/03/19 02:42:34;;;;;;;17.30;4.18;;;3.60;99.90;;;;;;5019235;28;20179;-83
2022/03/19 02:44:59;;;;;;;13.68;3.00;;;3.70;99.90;;;;;;5001086;28;20423;-84
2022/03/19 02:47:25;;;;;;;9.90;2.50;;;3.80;99.90;;;;;;5011265;28;20520;-84
2022/03/19 02:49:50;;;;;;;11.50;3.28;;;3.70;99.90;;;;;;5009850;28;20531;-83
2022/03/19 02:52:16;;;;;;;15.73;3.53;;;3.80;99.90;;;;;;4989523;28;20042;-83
2022/03/19 02:54:41;;;;;;;11.07;3.08;;;3.50;99.90;;;;;;4991243;28;20145;-84
2022/03/19 02:57:07;;;;;;;9.43;3.15;;;3.50;99.90;;;;;;4990187;28;20053;-83
2022/03/19 02:59:34;;;;;;;11.93;3.13;;;3.70;99.90;;;;;;4989945;28;20053;-83
2022/03/19 03:02:02;;;;;;;13.93;3.80;;;3.70;99.90;;;;;;4976621;28;20082;-84
2022/03/19 03:04:28;;;;;;;12.27;3.22;;;3.50;99.90;;;;;;4974629;28;20047;-84
2022/03/19 03:06:57;;;;;;;11.15;3.95;;;3.50;99.90;;;;;;4975912;28;20404;-84
2022/03/19 03:09:27;;;;;;;9.10;3.15;;;3.60;99.90;;;;;;4993688;28;20097;-83
2022/03/19 03:11:53;;;;;;;10.18;2.85;;;3.60;99.90;;;;;;4992684;28;20042;-83
2022/03/19 03:14:20;;;;;;;10.75;2.95;;;3.40;99.90;;;;;;4993120;28;20046;-83
2022/03/19 03:16:47;;;;;;;14.55;3.63;;;3.30;99.90;;;;;;4990795;28;20050;-84
2022/03/19 03:19:13;;;;;;;14.13;3.53;;;3.30;99.90;;;;;;5012517;28;20045;-84
2022/03/19 03:21:39;;;;;;;11.75;4.10;;;3.50;99.90;;;;;;5002502;28;20438;-85
2022/03/19 03:24:06;;;;;;;13.98;3.38;;;3.30;99.90;;;;;;5012338;28;20105;-83
2022/03/19 03:26:32;;;;;;;12.35;3.70;;;3.40;99.90;;;;;;5014209;28;20084;-84
2022/03/19 03:28:58;;;;;;;15.57;4.82;;;3.50;99.90;;;;;;4979253;28;20047;-84
2022/03/19 03:31:25;;;;;;;10.98;3.03;;;3.30;99.90;;;;;;5003103;28;20034;-84
2022/03/19 03:33:51;;;;;;;9.40;3.65;;;3.30;99.90;;;;;;5004079;28;20064;-85
2022/03/19 03:36:17;;;;;;;15.43;3.88;;;3.40;99.90;;;;;;5012759;28;20236;-84
2022/03/19 03:38:42;;;;;;;13.18;4.32;;;3.20;99.90;;;;;;5013873;28;20038;-84
2022/03/19 03:41:08;;;;;;;11.77;3.72;;;3.30;99.90;;;;;;5012072;28;20046;-84
2022/03/19 03:43:34;;;;;;;14.60;3.45;;;3.20;99.90;;;;;;5013795;28;20042;-84
2022/03/19 03:46:00;;;;;;;10.48;3.60;;;3.20;99.90;;;;;;5012406;28;20566;-84
2022/03/19 03:48:26;;;;;;;12.48;3.78;;;3.50;99.90;;;;;;4998887;28;20500;-84
2022/03/19 03:50:55;;;;;;;13.88;3.83;;;3.10;99.90;;;;;;5004089;28;20125;-84
2022/03/19 03:53:22;;;;;;;10.05;4.00;;;3.10;99.90;;;;;;5012249;28;20507;-84
2022/03/19 03:55:49;;;;;;;11.30;3.72;;;3.10;99.90;;;;;;5028588;28;20079;-84
2022/03/19 03:58:15;;;;;;;13.18;4.40;;;2.90;99.90;;;;;;4995341;28;20125;-84
2022/03/19 04:00:40;;;;;;;9.70;3.75;;;2.90;99.90;;;;;;5002169;28;20117;-84
2022/03/19 04:03:06;;;;;;;15.45;4.90;;;3.00;99.90;;;;;;5012411;28;20096;-84
2022/03/19 04:05:35;;;;;;;8.68;3.47;;;3.10;99.90;;;;;;5007773;28;20121;-84
2022/03/19 04:08:02;;;;;;;12.73;3.72;;;2.90;99.90;;;;;;5011781;28;20034;-84
2022/03/19 04:10:28;;;;;;;12.18;3.78;;;2.70;99.90;;;;;;5004302;28;20523;-84
2022/03/19 04:12:53;;;;;;;11.95;3.85;;;2.70;99.90;;;;;;4993796;28;20046;-83
2022/03/19 04:15:19;;;;;;;11.38;3.60;;;2.70;99.90;;;;;;4993316;28;20042;-84
2022/03/19 04:17:45;;;;;;;9.82;3.90;;;2.60;99.90;;;;;;4991278;28;20046;-82
2022/03/19 04:20:11;;;;;;;15.73;4.55;;;2.60;99.90;;;;;;4991559;28;20492;-83
2022/03/19 04:22:38;;;;;;;11.23;4.13;;;2.50;99.90;;;;;;4993678;28;20035;-84
2022/03/19 04:25:09;;;;;;;12.73;4.20;;;2.50;99.90;;;;;;4991644;28;20428;-84
2022/03/19 04:27:35;;;;;;;14.40;4.78;;;2.50;99.90;;;;;;5004866;28;20050;-83
2022/03/19 04:30:00;;;;;;;16.75;5.30;;;2.50;99.90;;;;;;4990612;28;20138;-84
2022/03/19 04:32:26;;;;;;;14.05;4.65;;;2.50;99.90;;;;;;4992055;28;20092;-84
2022/03/19 04:34:52;;;;;;;11.63;4.85;;;2.50;99.90;;;;;;4991850;28;20050;-84
2022/03/19 04:37:17;;;;;;;18.05;5.45;;;2.50;99.90;;;;;;5005156;28;20034;-84
2022/03/19 04:39:43;;;;;;;17.52;5.50;;;2.60;99.90;;;;;;5011917;28;20116;-84
2022/03/19 04:42:08;;;;;;;15.05;5.65;;;2.60;99.90;;;;;;5011888;28;20124;-84
2022/03/19 04:44:34;;;;;;;13.43;5.30;;;2.60;99.90;;;;;;5011178;28;20042;-83
2022/03/19 04:47:00;;;;;;;15.23;5.00;;;2.60;99.90;;;;;;5011619;28;20092;-83
2022/03/19 04:49:25;;;;;;;20.52;6.10;;;2.60;99.90;;;;;;4997950;28;20038;-85
2022/03/19 04:51:51;;;;;;;14.40;5.50;;;2.80;99.90;;;;;;4991919;28;20042;-84
2022/03/19 04:54:17;;;;;;;16.05;5.47;;;2.60;99.90;;;;;;4991433;28;20042;-84
2022/03/19 04:56:42;;;;;;;13.48;5.65;;;2.60;99.90;;;;;;4991571;28;20046;-84
2022/03/19 04:59:11;;;;;;;13.65;5.60;;;2.60;99.90;;;;;;5003370;28;20132;-84
2022/03/19 05:01:39;;;;;;;14.07;5.65;;;2.60;99.90;;;;;;5011892;28;20413;-84
2022/03/19 05:04:04;;;;;;;15.05;5.20;;;2.60;99.90;;;;;;5001909;28;20100;-83
2022/03/19 05:06:30;;;;;;;10.73;5.15;;;2.60;99.90;;;;;;4990636;28;20073;-84
2022/03/19 05:11:41;;;;;;;15.45;5.93;;;2.50;99.90;;;;;;5000336;28;20423;-84
2022/03/19 05:14:06;;;;;;;12.38;6.22;;;2.50;99.90;;;;;;4992375;28;20109;-84
2022/03/19 05:16:32;;;;;;;18.13;7.05;;;2.50;99.90;;;;;;4992490;28;20038;-84
2022/03/19 05:18:58;;;;;;;15.15;6.13;;;2.50;99.90;;;;;;5001393;28;20452;-84
2022/03/19 05:21:23;;;;;;;16.17;5.93;;;2.50;99.90;;;;;;4990795;28;20030;-83
2022/03/19 05:23:49;;;;;;;15.23;5.70;;;2.40;99.90;;;;;;5003211;28;20058;-84
2022/03/19 05:26:15;;;;;;;14.48;6.32;;;2.40;99.90;;;;;;4990810;28;20038;-84
2022/03/19 05:28:40;;;;;;;14.15;5.68;;;2.30;99.90;;;;;;4990773;28;20058;-84
2022/03/19 05:31:08;;;;;;;17.80;6.22;;;2.60;99.90;;;;;;4992357;28;20089;-83
2022/03/19 05:36:18;;;;;;;20.77;7.40;;;2.30;99.90;;;;;;4991031;28;20050;-84
2022/03/19 05:38:43;;;;;;;14.48;6.63;;;2.30;99.90;;;;;;4994643;28;20037;-84
2022/03/19 05:41:10;;;;;;;14.65;6.25;;;2.50;99.90;;;;;;4994732;28;20050;-84
2022/03/19 05:43:35;;;;;;;17.98;7.13;;;2.30;99.90;;;;;;4971486;28;20458;-84
2022/03/19 05:46:01;;;;;;;19.52;7.57;;;2.30;99.90;;;;;;4981957;28;20058;-84
2022/03/19 05:48:27;;;;;;;19.58;7.20;;;2.30;99.90;;;;;;4992140;28;20397;-84
2022/03/19 05:50:53;;;;;;;21.65;7.47;;;2.40;99.90;;;;;;4990832;28;20045;-84
2022/03/19 05:53:18;;;;;;;19.48;7.57;;;2.40;99.90;;;;;;4990486;28;20492;-84
2022/03/19 05:55:44;;;;;;;18.30;7.25;;;2.40;99.90;;;;;;4990669;28;20096;-84
2022/03/19 05:58:10;;;;;;;17.20;7.10;;;2.50;99.90;;;;;;4992354;28;20138;-84
2022/03/19 06:00:35;;;;;;;15.25;7.07;;;2.50;99.90;;;;;;5010065;28;20041;-84
2022/03/19 06:03:01;;;;;;;21.10;8.30;;;2.50;99.90;;;;;;5009963;28;20050;-84
2022/03/19 06:05:26;;;;;;;17.65;9.13;;;2.60;99.90;;;;;;5007000;28;20037;-83
2022/03/19 06:07:52;;;;;;;20.10;8.75;;;2.60;99.90;;;;;;4990717;28;20038;-84
2022/03/19 06:10:18;;;;;;;17.08;8.27;;;2.60;99.90;;;;;;4992163;28;20050;-84
2022/03/19 06:12:46;;;;;;;23.38;8.55;;;2.60;99.90;;;;;;4990713;28;20389;-84
2022/03/19 06:15:12;;;;;;;17.48;8.65;;;2.70;99.90;;;;;;5006333;28;20527;-84
2022/03/19 06:17:37;;;;;;;21.63;8.77;;;2.80;99.90;;;;;;4991357;28;20085;-84
2022/03/19 06:20:03;;;;;;;20.75;8.52;;;2.70;99.90;;;;;;4991692;28;20485;-84
2022/03/19 06:22:29;;;;;;;19.05;9.23;;;2.80;99.90;;;;;;4992043;28;20070;-84
2022/03/19 06:24:54;;;;;;;25.70;9.38;;;3.00;99.90;;;;;;4991652;28;20557;-85
2022/03/19 06:27:20;;;;;;;20.33;8.57;;;3.00;99.90;;;;;;4995908;28;20043;-84
2022/03/19 06:29:46;;;;;;;23.45;8.88;;;3.00;99.90;;;;;;4991590;28;20034;-84
2022/03/19 06:32:11;;;;;;;19.33;9.40;;;3.00;99.90;;;;;;4991720;28;20046;-84
2022/03/19 06:34:37;;;;;;;20.77;9.07;;;3.50;99.90;;;;;;4991565;28;20516;-84
2022/03/19 06:37:21;;;;;;;18.17;9.13;;;3.20;99.90;;;;;;4991735;28;20084;-84
2022/03/19 06:39:54;;;;;;;20.48;8.52;;;3.30;99.90;;;;;;4999836;28;20503;-83
2022/03/19 06:42:20;;;;;;;20.95;9.23;;;3.40;99.90;;;;;;4979196;28;20073;-84
2022/03/19 06:44:46;;;;;;;16.58;8.48;;;3.50;99.90;;;;;;4995205;28;20100;-84
2022/03/19 06:47:12;;;;;;;23.90;9.02;;;3.60;99.90;;;;;;4994073;28;20034;-84
2022/03/19 06:49:37;;;;;;;21.42;9.48;;;3.60;99.90;;;;;;5001346;28;20034;-84
2022/03/19 06:52:03;;;;;;;21.80;9.27;;;3.70;99.90;;;;;;5010661;28;20073;-83
2022/03/19 06:54:29;;;;;;;22.92;8.98;;;3.80;99.90;;;;;;4979056;28;20196;-83
2022/03/19 06:56:54;;;;;;;22.63;9.05;;;3.90;99.90;;;;;;4975857;28;20043;-84
2022/03/19 06:59:20;;;;;;;21.98;8.50;;;4.00;99.90;;;;;;4989294;28;20074;-83
2022/03/19 07:01:46;;;;;;;23.13;9.07;;;4.20;99.90;;;;;;5011645;28;20124;-84
2022/03/19 07:04:12;;;;;;;19.08;8.75;;;4.30;99.90;;;;;;5007791;28;20113;-84
2022/03/19 07:06:37;;;;;;;21.45;8.48;;;4.40;99.90;;;;;;4994284;28;20046;-84
2022/03/19 07:09:04;;;;;;;17.73;7.70;;;4.60;99.90;;;;;;4994734;28;20045;-84
2022/03/19 07:11:31;;;;;;;22.52;8.30;;;4.60;99.90;;;;;;4998510;28;20049;-84
2022/03/19 07:13:57;;;;;;;20.80;7.53;;;4.70;99.90;;;;;;4993659;28;20515;-83
2022/03/19 07:16:23;;;;;;;16.60;7.55;;;4.80;99.90;;;;;;4991153;28;20035;-84
2022/03/19 07:18:49;;;;;;;20.20;8.15;;;5.00;99.90;;;;;;4998076;28;20041;-83
2022/03/19 07:21:15;;;;;;;18.30;6.85;;;5.10;99.90;;;;;;5000915;28;20038;-83
2022/03/19 07:23:42;;;;;;;14.30;6.25;;;5.20;99.90;;;;;;4997374;28;20049;-83
2022/03/19 07:26:07;;;;;;;17.58;6.70;;;5.30;99.90;;;;;;4994035;28;20382;-84
2022/03/19 07:28:33;;;;;;;16.13;6.35;;;5.60;99.90;;;;;;4993339;28;20097;-84
2022/03/19 07:31:00;;;;;;;21.48;6.30;;;5.50;99.90;;;;;;4993481;28;20065;-84
2022/03/19 07:33:27;;;;;;;17.63;6.10;;;5.60;99.90;;;;;;4994006;28;20046;-84
2022/03/19 07:35:53;;;;;;;14.48;5.55;;;5.90;99.90;;;;;;4997765;28;20096;-85
2022/03/19 07:38:18;;;;;;;14.23;6.75;;;5.80;99.90;;;;;;5002615;28;20117;-84
2022/03/19 07:43:30;;;;;;;16.70;6.30;;;6.00;99.90;;;;;;5017808;28;20049;-84
2022/03/19 07:45:55;;;;;;;18.02;6.30;;;6.10;99.90;;;;;;5003122;28;20034;-84
2022/03/19 07:48:21;;;;;;;13.40;5.78;;;6.20;99.90;;;;;;5000547;28;20050;-83
2022/03/19 07:50:46;;;;;;;16.02;5.82;;;6.30;99.90;;;;;;4995419;28;20045;-84
2022/03/19 07:53:12;;;;;;;13.05;5.20;;;6.40;99.90;;;;;;4995206;28;20053;-84
2022/03/19 07:55:38;;;;;;;14.60;5.43;;;6.50;99.90;;;;;;4998812;28;20515;-84
2022/03/19 07:58:04;;;;;;;13.35;5.05;;;6.60;99.90;;;;;;5006224;28;20042;-85
2022/03/19 08:00:29;;;;;;;17.70;5.50;;;6.60;99.90;;;;;;4991921;28;20044;-85
2022/03/19 08:02:55;;;;;;;15.65;5.90;;;6.70;99.90;;;;;;4998828;28;20407;-84
2022/03/19 08:05:21;;;;;;;14.30;5.53;;;6.90;99.90;;;;;;4998468;28;20041;-84
2022/03/19 08:07:46;;;;;;;16.65;5.28;;;6.90;99.90;;;;;;4999465;28;20104;-84
2022/03/19 08:10:13;;;;;;;15.20;5.55;;;7.10;99.90;;;;;;4998882;28;20038;-85
2022/03/19 08:12:40;;;;;;;13.25;5.25;;;7.20;99.90;;;;;;4996525;28;20042;-84
2022/03/19 08:15:08;;;;;;;22.35;5.78;;;7.20;99.90;;;;;;5005752;28;20557;-85
2022/03/19 08:17:36;;;;;;;15.07;5.90;;;7.30;99.90;;;;;;5000246;28;20046;-84
2022/03/19 08:20:06;;;;;;;17.10;5.70;;;7.50;99.90;;;;;;4997018;28;20046;-84
2022/03/19 08:22:31;;;;;;;18.27;5.25;;;7.60;99.90;;;;;;4992685;28;20034;-84
2022/03/19 08:24:58;;;;;;;14.32;5.30;;;7.60;99.90;;;;;;4993406;28;20392;-84
2022/03/19 08:27:24;;;;;;;15.13;5.15;;;7.70;99.90;;;;;;5000737;28;20077;-84
2022/03/19 08:29:51;;;;;;;16.17;6.20;;;7.80;99.90;;;;;;5002341;28;20070;-83
2022/03/19 08:32:16;;;;;;;13.35;5.50;;;8.00;99.90;;;;;;5006451;28;20081;-84
2022/03/19 08:34:44;;;;;;;15.98;4.93;;;8.10;99.90;;;;;;4992938;28;20078;-84
2022/03/19 08:37:09;;;;;;;12.90;5.18;;;8.20;99.90;;;;;;4992957;28;20143;-83
2022/03/19 08:42:19;;;;;;;;;;;8.30;99.90;;;;;;5006247;28;20045;-83
2022/03/19 08:44:45;;;;;;;17.67;5.30;;;8.30;99.90;;;;;;5008146;28;20016;-85
2022/03/19 08:47:11;;;;;;;16.95;5.15;;;8.60;99.90;;;;;;4996557;28;20062;-84
2022/03/19 08:49:36;;;;;;;12.90;5.10;;;8.50;99.90;;;;;;4994394;28;20073;-84
2022/03/19 08:52:02;;;;;;;14.90;4.25;;;8.50;99.90;;;;;;4992958;28;20034;-84
2022/03/19 08:54:28;;;;;;;16.75;4.60;;;8.60;99.90;;;;;;4996205;28;20046;-84
2022/03/19 08:56:54;;;;;;;13.68;4.68;;;8.60;99.90;;;;;;4990389;28;20042;-84
2022/03/19 08:59:20;;;;;;;18.70;5.35;;;8.70;99.90;;;;;;4987322;28;20039;-84
2022/03/19 09:01:48;;;;;;;15.93;4.78;;;8.70;99.90;;;;;;4992076;28;20109;-83
2022/03/19 09:04:15;;;;;;;16.27;4.60;;;8.80;99.90;;;;;;4993569;28;20057;-84
2022/03/19 09:06:41;;;;;;;10.95;4.47;;;8.90;99.90;;;;;;4995784;28;20038;-84
2022/03/19 09:09:07;;;;;;;14.43;4.10;;;9.00;99.90;;;;;;5007735;28;20121;-84
2022/03/19 09:11:35;;;;;;;15.75;4.78;;;9.10;99.90;;;;;;4996664;28;20046;-85
2022/03/19 09:14:03;;;;;;;12.93;4.45;;;9.20;99.90;;;;;;4990482;28;20049;-83
2022/03/19 09:16:29;;;;;;;16.80;4.43;;;9.20;99.90;;;;;;4992812;28;20046;-84
2022/03/19 09:18:56;;;;;;;17.77;4.43;;;9.30;99.90;;;;;;5002299;28;20492;-84
2022/03/19 09:21:22;;;;;;;11.10;3.72;;;9.40;99.90;;;;;;4991499;28;20093;-84
2022/03/19 09:23:49;;;;;;;15.65;4.03;;;9.50;99.90;;;;;;4997198;28;20511;-85
2022/03/19 09:26:16;;;;;;;13.18;3.60;;;9.50;99.90;;;;;;4992472;28;20077;-85
2022/03/19 09:28:42;;;;;;;10.00;3.00;;;9.60;99.90;;;;;;4993162;28;20180;-84
2022/03/19 09:31:08;;;;;;;12.52;3.92;;;9.70;99.90;;;;;;4997793;28;20113;-84
2022/03/19 09:33:34;;;;;;;11.25;3.72;;;9.80;99.90;;;;;;4998073;28;20117;-85
2022/03/19 09:36:03;;;;;;;10.45;3.10;;;9.90;99.90;;;;;;5007954;28;20073;-85
2022/03/19 09:38:29;;;;;;;9.30;2.83;;;10.00;99.90;;;;;;4996429;28;20046;-84
2022/03/19 09:40:56;;;;;;;12.05;3.08;;;10.00;99.90;;;;;;4993161;28;20035;-85
2022/03/19 09:43:25;;;;;;;12.65;2.80;;;10.00;99.90;;;;;;4996003;28;20042;-85
2022/03/19 09:45:52;;;;;;;10.90;3.08;;;10.10;99.90;;;;;;4994473;28;20416;-84
2022/03/19 09:48:18;;;;;;;15.45;2.70;;;10.20;99.90;;;;;;4994262;28;20040;-84
2022/03/19 09:50:45;;;;;;;9.63;2.70;;;10.20;99.90;;;;;;4994484;28;20049;-83
2022/03/19 09:53:11;;;;;;;8.45;3.10;;;10.30;99.90;;;;;;5010445;28;20492;-83
2022/03/19 09:55:39;;;;;;;9.40;2.90;;;10.30;99.90;;;;;;5011600;28;20038;-84
2022/03/19 09:58:05;;;;;;;8.73;2.45;;;10.30;99.90;;;;;;5011661;28;20044;-84
2022/03/19 10:00:31;;;;;;;10.18;2.42;;;10.30;99.90;;;;;;5010177;28;20492;-83
2022/03/19 10:03:02;;;;;;;8.55;2.60;;;10.30;99.90;;;;;;5011585;28;20038;-84
2022/03/19 10:08:36;;;;;;;10.55;2.30;;;10.50;99.90;;;;;;5011656;28;20056;-84
2022/03/19 10:11:11;;;;;;;8.38;2.17;;;10.60;99.90;;;;;;5011678;28;20136;-84
2022/03/19 10:13:42;;;;;;;9.02;2.50;;;10.70;99.90;;;;;;5015159;28;20045;-83
2022/03/19 10:16:09;;;;;;;9.05;2.65;;;10.70;99.90;;;;;;5011072;28;20489;-84
2022/03/19 10:18:35;;;;;;;7.47;2.45;;;10.80;99.90;;;;;;4996077;28;20643;-84
2022/03/19 10:21:12;;;;;;;10.50;3.38;;;10.90;99.90;;;;;;4994772;28;20050;-84
2022/03/19 10:23:41;;;;;;;14.05;3.10;;;11.00;99.90;;;;;;4994695;28;20047;-84
2022/03/19 10:26:07;;;;;;;9.90;3.10;;;11.10;99.90;;;;;;4993928;28;20449;-83
2022/03/19 10:28:34;;;;;;;8.82;2.50;;;11.20;99.90;;;;;;4993980;28;20132;-84
2022/03/19 10:31:01;;;;;;;8.40;2.50;;;11.20;99.90;;;;;;4994497;28;20056;-84
2022/03/19 10:33:30;;;;;;;10.23;3.05;;;11.20;99.90;;;;;;4998535;28;20069;-83
2022/03/19 10:36:10;;;;;;;8.00;2.67;;;11.20;99.90;;;;;;4995495;28;20117;-84
2022/03/19 10:38:42;;;;;;;9.65;3.03;;;11.20;99.90;;;;;;4990270;28;20038;-83
2022/03/19 10:41:07;;;;;;;11.48;3.05;;;11.40;99.90;;;;;;4994711;28;20397;-83
2022/03/19 10:43:34;;;;;;;10.40;3.38;;;11.50;99.90;;;;;;4989113;28;20046;-84
2022/03/19 10:46:03;;;;;;;8.07;2.67;;;11.70;99.90;;;;;;4982775;28;20049;-82
2022/03/19 10:48:29;;;;;;;9.60;2.40;;;11.80;99.90;;;;;;4976779;28;20046;-83
2022/03/19 10:50:57;;;;;;;6.68;2.20;;;11.80;99.90;;;;;;4997220;28;20117;-84
2022/03/19 10:53:24;;;;;;;7.22;2.60;;;11.80;99.90;;;;;;4975931;28;20070;-83
2022/03/19 10:55:50;;;;;;;9.15;2.58;;;11.80;99.90;;;;;;4977829;28;20417;-84
2022/03/19 10:58:16;;;;;;;9.50;2.45;;;11.90;99.90;;;;;;5004597;28;20121;-84
2022/03/19 11:00:43;;;;;;;10.82;2.53;;;11.90;99.90;;;;;;4988145;28;20118;-83
2022/03/19 11:03:17;;;;;;;10.70;2.90;;;12.10;99.90;;;;;;4994053;28;20038;-83
2022/03/19 11:05:45;;;;;;;10.15;2.65;;;12.00;99.90;;;;;;4988652;28;20545;-85
2022/03/19 11:08:12;;;;;;;9.38;2.67;;;12.00;99.90;;;;;;4993414;28;20468;-84
2022/03/19 11:10:39;;;;;;;11.30;3.15;;;12.00;99.90;;;;;;4993867;28;20551;-83
2022/03/19 11:13:06;;;;;;;8.63;2.50;;;12.20;99.90;;;;;;4993313;28;20046;-84
2022/03/19 11:15:35;;;;;;;10.43;3.15;;;12.10;99.90;;;;;;4994483;28;20093;-84
2022/03/19 11:18:05;;;;;;;6.97;2.78;;;12.10;99.40;;;;;;4999394;28;20427;-83
2022/03/19 11:20:31;;;;;;;9.50;2.47;;;12.20;99.90;;;;;;4996206;28;20077;-84
2022/03/19 11:22:59;;;;;;;11.38;2.80;;;12.30;99.10;;;;;;5008267;28;20678;-83
2022/03/19 11:25:27;;;;;;;9.95;2.50;;;12.40;99.20;;;;;;5003186;28;20039;-85
2022/03/19 11:28:09;;;;;;;5.47;2.10;;;12.30;98.90;;;;;;4994077;28;20047;-83
2022/03/19 11:30:42;;;;;;;6.90;2.15;;;12.40;97.80;;;;;;4999574;28;20038;-84
2022/03/19 11:33:19;;;;;;;7.13;2.42;;;12.40;97.10;;;;;;4994598;28;20042;-83
2022/03/19 11:35:58;;;;;;;46.53;23.55;;;12.50;97.00;;;;;;4992994;28;20069;-83
2022/03/19 11:38:25;;;;;;;9.55;3.67;;;12.50;97.70;;;;;;4993212;28;20052;-83
2022/03/19 11:40:56;;;;;;;6.78;2.25;;;12.60;96.90;;;;;;4993321;28;20042;-83
2022/03/19 11:43:24;;;;;;;6.07;2.13;;;12.70;96.70;;;;;;4997848;28;20050;-84
2022/03/19 11:46:04;;;;;;;5.80;1.80;;;12.80;97.10;;;;;;4994593;28;20475;-84
2022/03/19 11:48:38;;;;;;;6.05;2.17;;;12.90;96.70;;;;;;5011236;28;20415;-84
2022/03/19 11:51:24;;;;;;;6.40;1.80;;;13.00;96.90;;;;;;5012595;28;20109;-85
2022/03/19 11:54:15;;;;;;;8.90;1.65;;;13.10;94.90;;;;;;4995305;28;20046;-84
2022/03/19 11:56:44;;;;;;;3.80;1.52;;;13.10;95.00;;;;;;4990888;28;20030;-85
2022/03/19 11:59:32;;;;;;;5.22;1.40;;;13.00;94.30;;;;;;4990470;28;20050;-84
2022/03/19 12:02:03;;;;;;;3.25;1.38;;;13.00;94.30;;;;;;4996134;28;20062;-83
2022/03/19 12:04:48;;;;;;;4.32;1.50;;;13.00;93.50;;;;;;4993207;28;20053;-85
2022/03/19 12:07:41;;;;;;;6.22;1.58;;;13.10;93.30;;;;;;4987950;28;20069;-85
2022/03/19 12:10:24;;;;;;;6.40;1.60;;;13.20;92.90;;;;;;4989160;28;20069;-84
2022/03/19 12:12:50;;;;;;;2.47;1.10;;;13.30;93.00;;;;;;4977760;28;20058;-86
2022/03/19 12:15:31;;;;;;;3.47;1.38;;;13.30;92.90;;;;;;4976874;28;20101;-84
2022/03/19 12:18:22;;;;;;;3.63;1.52;;;13.40;92.50;;;;;;4989237;28;20045;-86
2022/03/19 12:20:49;;;;;;;3.92;1.40;;;13.60;92.50;;;;;;4989833;28;20039;-84
2022/03/19 12:23:14;;;;;;;5.95;1.63;;;13.60;91.90;;;;;;4976425;28;20058;-84
2022/03/19 12:25:49;;;;;;;3.78;1.40;;;13.70;92.70;;;;;;4995520;28;20045;-83
2022/03/19 12:28:18;;;;;;;3.10;1.30;;;13.70;91.70;;;;;;5004393;28;20038;-84
2022/03/19 12:30:44;;;;;;;5.07;1.27;;;13.80;92.30;;;;;;4993332;28;20065;-84
2022/03/19 12:33:09;;;;;;;2.85;1.20;;;13.90;92.60;;;;;;4996160;28;20027;-84
2022/03/19 12:35:39;;;;;;;3.17;1.30;;;13.90;90.60;;;;;;4997796;28;20527;-86
2022/03/19 12:38:05;;;;;;;6.90;1.48;;;13.90;91.60;;;;;;5000806;28;20088;-84
2022/03/19 12:43:17;;;;;;;4.05;1.40;;;14.00;91.80;;;;;;4991494;28;20532;-85
2022/03/19 12:45:47;;;;;;;3.92;1.65;;;14.10;91.00;;;;;;4987309;28;20038;-84
2022/03/19 12:48:29;;;;;;;3.85;1.33;;;14.00;91.30;;;;;;4993455;28;20034;-86
2022/03/19 12:50:56;;;;;;;4.72;1.65;;;14.10;90.20;;;;;;4991194;28;20038;-85
2022/03/19 12:53:33;;;;;;;7.20;1.60;;;14.20;90.90;;;;;;4997372;28;20100;-86
2022/03/19 12:56:15;;;;;;;3.88;1.42;;;14.30;89.40;;;;;;5009900;28;20077;-85
2022/03/19 12:58:44;;;;;;;4.88;1.67;;;14.40;89.50;;;;;;5011723;28;20077;-84
2022/03/19 13:01:14;;;;;;;4.65;1.60;;;14.30;90.00;;;;;;5011490;28;20088;-84
2022/03/19 13:03:41;;;;;;;5.05;1.58;;;14.30;90.30;;;;;;5011209;28;20097;-86
2022/03/19 13:06:10;;;;;;;4.70;1.63;;;14.50;90.50;;;;;;4995813;28;20096;-86
2022/03/19 13:08:47;;;;;;;5.10;1.60;;;14.70;90.90;;;;;;4989660;28;20042;-85